Time;durP1;ratioP1;P1;durP2;ratioP2;P2;SDS_P1;SDS_P2;PMS_P1;PMS_P2;Temp;Humidity;BMP_temperature;BMP_pressure;BME280_temperature;BME280_humidity;BME280_pressure;Samples;Min_cycle;Max_cycle;Signal;HPM_P1;HPM_P2
2022/12/14 00:02:30;;;;;;;2.22;1.77;;;18.90;51.50;;;;;;6247424;28;20041;-69
2022/12/14 00:05:31;;;;;;;3.83;2.00;;;18.90;51.50;;;;;;6247829;28;20041;-70
2022/12/14 00:08:32;;;;;;;3.35;2.17;;;18.90;51.50;;;;;;6247342;28;20486;-70
2022/12/14 00:11:33;;;;;;;3.38;2.00;;;18.90;51.50;;;;;;6246936;28;20546;-69
2022/12/14 00:14:34;;;;;;;2.60;1.90;;;18.90;51.50;;;;;;6247302;28;20026;-69
2022/12/14 00:17:34;;;;;;;2.63;1.90;;;18.90;51.50;;;;;;6247449;28;20563;-69
2022/12/14 00:20:35;;;;;;;2.60;1.70;;;18.90;51.50;;;;;;6245669;28;20128;-69
2022/12/14 00:23:37;;;;;;;2.70;1.73;;;18.90;51.50;;;;;;6246941;28;20517;-69
2022/12/14 00:26:38;;;;;;;2.33;1.92;;;18.90;51.60;;;;;;6246635;28;20113;-69
2022/12/14 00:29:39;;;;;;;3.53;1.92;;;18.90;51.60;;;;;;6246999;28;20021;-69
2022/12/14 00:32:40;;;;;;;2.72;1.77;;;18.90;51.60;;;;;;6245385;28;20030;-70
2022/12/14 00:35:40;;;;;;;2.45;1.88;;;18.90;51.60;;;;;;6246795;28;20399;-69
2022/12/14 00:38:42;;;;;;;4.70;1.92;;;18.90;51.60;;;;;;6246759;28;20021;-70
2022/12/14 00:41:42;;;;;;;2.88;1.55;;;18.90;51.60;;;;;;6246086;28;20670;-69
2022/12/14 00:44:43;;;;;;;1.73;1.50;;;18.90;51.60;;;;;;6246199;28;20033;-69
2022/12/14 00:47:44;;;;;;;2.78;2.10;;;18.90;51.60;;;;;;6246602;28;20036;-69
2022/12/14 00:50:46;;;;;;;2.33;1.98;;;18.90;51.60;;;;;;6246313;28;20448;-69
2022/12/14 00:53:47;;;;;;;4.90;2.03;;;18.90;51.60;;;;;;6246352;28;20400;-69
2022/12/14 00:56:48;;;;;;;2.83;2.17;;;18.90;51.70;;;;;;6246322;28;20132;-70
2022/12/14 00:59:48;;;;;;;2.72;1.80;;;18.90;51.70;;;;;;6246106;28;20025;-69
2022/12/14 01:02:49;;;;;;;2.08;1.75;;;18.90;51.60;;;;;;6244900;28;20430;-69
2022/12/14 01:05:50;;;;;;;2.60;1.88;;;18.90;51.70;;;;;;6245784;28;20391;-70
2022/12/14 01:08:51;;;;;;;2.17;1.73;;;18.90;51.70;;;;;;6246189;28;20075;-69
2022/12/14 01:11:52;;;;;;;2.50;1.83;;;18.90;51.70;;;;;;6246260;28;20104;-69
2022/12/14 01:14:52;;;;;;;2.95;1.90;;;18.90;51.70;;;;;;6244619;28;20025;-69
2022/12/14 01:17:53;;;;;;;2.72;1.83;;;18.90;51.70;;;;;;6244696;28;20032;-69
2022/12/14 01:20:54;;;;;;;2.72;2.08;;;18.90;51.60;;;;;;6245522;28;20559;-69
2022/12/14 01:23:57;;;;;;;2.25;1.75;;;18.90;51.70;;;;;;6246215;28;20391;-69
2022/12/14 01:26:58;;;;;;;2.63;1.77;;;18.90;51.60;;;;;;6245734;28;20229;-69
2022/12/14 01:29:59;;;;;;;3.40;2.17;;;18.90;51.70;;;;;;6244415;28;20022;-69
2022/12/14 01:32:59;;;;;;;2.63;1.90;;;18.90;51.60;;;;;;6245285;28;20084;-69
2022/12/14 01:36:09;;;;;;;2.40;1.90;;;18.90;51.60;;;;;;6245455;28;20022;-69
2022/12/14 01:39:12;;;;;;;1.90;1.50;;;18.90;51.70;;;;;;6244248;28;20048;-70
2022/12/14 01:42:14;;;;;;;2.08;1.65;;;18.90;51.70;;;;;;6245352;28;20575;-70
2022/12/14 01:45:18;;;;;;;2.00;1.50;;;18.90;51.70;;;;;;6245256;28;20033;-69
2022/12/14 01:48:19;;;;;;;2.38;1.65;;;18.90;51.60;;;;;;6245285;28;20022;-70
2022/12/14 01:51:22;;;;;;;2.50;1.92;;;18.90;51.70;;;;;;6260141;28;20024;-69
2022/12/14 01:54:26;;;;;;;1.85;1.52;;;18.90;51.70;;;;;;6244266;28;20025;-70
2022/12/14 01:57:36;;;;;;;2.15;1.83;;;18.90;51.70;;;;;;6243624;28;20705;-70
2022/12/14 02:00:37;;;;;;;2.30;1.77;;;18.90;51.70;;;;;;6244897;28;20190;-71
2022/12/14 02:03:44;;;;;;;4.13;1.70;;;18.90;51.70;;;;;;6244748;28;20479;-70
2022/12/14 02:06:47;;;;;;;2.45;1.90;;;18.90;51.70;;;;;;6244387;28;20219;-69
2022/12/14 02:09:51;;;;;;;2.05;1.60;;;18.90;51.60;;;;;;6244768;28;20045;-70
2022/12/14 02:13:10;;;;;;;2.55;2.00;;;18.90;51.60;;;;;;6244247;28;20025;-69
2022/12/14 02:16:11;;;;;;;2.08;1.73;;;18.90;51.70;;;;;;6243912;28;20479;-70
2022/12/14 02:19:12;;;;;;;2.33;1.50;;;18.90;51.70;;;;;;6244239;28;20083;-69
2022/12/14 02:22:27;;;;;;;2.55;2.00;;;18.90;51.80;;;;;;6243754;28;20088;-69
2022/12/14 02:25:51;;;;;;;2.15;1.65;;;18.90;51.70;;;;;;6243902;28;20471;-70
2022/12/14 02:29:19;;;;;;;2.00;1.40;;;18.90;51.80;;;;;;6243843;28;20026;-69
2022/12/14 02:32:44;;;;;;;1.98;1.50;;;18.90;51.80;;;;;;6244352;28;20029;-69
2022/12/14 02:35:55;;;;;;;3.05;1.75;;;18.90;51.60;;;;;;6244134;28;20069;-70
2022/12/14 02:39:14;;;;;;;2.33;1.75;;;18.90;51.60;;;;;;6243939;28;20486;-69
2022/12/14 02:42:24;;;;;;;2.10;1.45;;;18.90;51.80;;;;;;6243736;28;20049;-69
2022/12/14 02:45:54;;;;;;;5.88;1.90;;;18.90;51.60;;;;;;6219161;28;20113;-69
2022/12/14 02:49:12;;;;;;;2.92;1.90;;;18.90;51.80;;;;;;6219464;28;20014;-69
2022/12/14 02:52:26;;;;;;;2.45;1.50;;;18.90;51.80;;;;;;6218207;28;20575;-69
2022/12/14 02:55:44;;;;;;;1.55;1.45;;;18.90;51.80;;;;;;6219493;28;20459;-69
2022/12/14 02:58:49;;;;;;;2.53;1.77;;;18.90;51.80;;;;;;6218534;28;20523;-69
2022/12/14 03:01:52;;;;;;;3.25;1.90;;;18.90;51.80;;;;;;6219428;28;20014;-70
2022/12/14 03:04:52;;;;;;;2.80;1.80;;;18.90;51.80;;;;;;6218780;28;20019;-69
2022/12/14 03:08:13;;;;;;;2.42;1.80;;;18.90;51.80;;;;;;6218905;28;20037;-70
2022/12/14 03:11:19;;;;;;;2.17;1.45;;;18.90;51.90;;;;;;6231904;28;20010;-69
2022/12/14 03:14:44;;;;;;;2.30;1.63;;;18.90;51.80;;;;;;6242535;28;20091;-69
2022/12/14 03:17:50;;;;;;;1.70;1.60;;;18.90;51.80;;;;;;6243287;28;20354;-70
2022/12/14 03:20:53;;;;;;;2.40;1.60;;;18.90;51.70;;;;;;6243663;28;20053;-69
2022/12/14 03:23:56;;;;;;;1.73;1.50;;;18.90;51.70;;;;;;6243236;28;20030;-69
2022/12/14 03:27:20;;;;;;;2.20;1.75;;;18.90;51.90;;;;;;6243542;28;20034;-69
2022/12/14 03:30:22;;;;;;;2.78;1.60;;;18.90;51.80;;;;;;6242934;28;20021;-68
2022/12/14 03:33:26;;;;;;;2.65;1.85;;;18.90;51.70;;;;;;6243094;28;20037;-69
2022/12/14 03:36:31;;;;;;;2.10;1.38;;;18.90;51.80;;;;;;6243406;28;20021;-69
2022/12/14 03:39:34;;;;;;;2.03;1.48;;;18.90;51.70;;;;;;6243279;28;20033;-68
2022/12/14 03:42:51;;;;;;;2.47;1.67;;;18.90;51.70;;;;;;6242459;28;20479;-69
2022/12/14 03:46:13;;;;;;;2.10;1.45;;;18.90;51.70;;;;;;6242577;28;20620;-69
2022/12/14 03:49:33;;;;;;;4.72;2.10;;;18.90;51.80;;;;;;6241839;28;20125;-69
2022/12/14 03:52:41;;;;;;;1.80;1.45;;;18.90;51.70;;;;;;6242861;28;20022;-69
2022/12/14 03:55:58;;;;;;;2.72;1.80;;;18.90;51.70;;;;;;6242534;28;20128;-69
2022/12/14 03:59:13;;;;;;;2.67;1.90;;;18.90;51.80;;;;;;6242673;28;20045;-69
2022/12/14 04:02:25;;;;;;;2.03;1.70;;;18.90;51.70;;;;;;6242704;28;20746;-69
2022/12/14 04:05:57;;;;;;;3.03;1.80;;;18.90;51.80;;;;;;6242193;28;20033;-69
2022/12/14 04:09:17;;;;;;;2.42;1.67;;;18.90;51.80;;;;;;6236990;28;20037;-69
2022/12/14 04:19:23;;;;;;;5.15;1.85;;;18.90;51.80;;;;;;6246076;28;20034;-68
2022/12/14 04:22:29;;;;;;;2.72;2.05;;;18.90;51.80;;;;;;6246929;28;20072;-69
2022/12/14 04:32:27;;;;;;;2.45;1.80;;;18.90;51.80;;;;;;6246338;28;20025;-68
2022/12/14 04:35:36;;;;;;;2.10;1.80;;;18.90;51.70;;;;;;6246505;28;20017;-68
2022/12/14 04:38:41;;;;;;;1.95;1.60;;;18.90;51.70;;;;;;6246460;28;20022;-69
2022/12/14 04:41:44;;;;;;;;;;;18.90;51.60;;;;;;6246937;28;20049;-69
2022/12/14 04:44:59;;;;;;;2.85;1.92;;;18.90;51.70;;;;;;6246590;28;19999;-69
2022/12/14 04:48:11;;;;;;;2.95;1.80;;;18.90;51.70;;;;;;6246296;28;20060;-69
2022/12/14 04:51:37;;;;;;;1.77;1.60;;;18.90;51.90;;;;;;6244595;28;20508;-68
2022/12/14 04:54:44;;;;;;;;;;;18.90;51.80;;;;;;6246582;28;20069;-68
2022/12/14 04:57:50;;;;;;;2.22;1.75;;;18.90;51.80;;;;;;6246582;28;19936;-69
2022/12/14 05:01:09;;;;;;;3.50;2.00;;;18.90;51.90;;;;;;6245732;28;20095;-69
2022/12/14 05:04:53;;;;;;;2.83;1.85;;;18.90;51.80;;;;;;6245914;28;20108;-69
2022/12/14 05:08:16;;;;;;;2.55;1.83;;;18.90;51.90;;;;;;6221300;28;20053;-69
2022/12/14 05:11:29;;;;;;;2.53;1.75;;;18.90;51.70;;;;;;6234263;28;20029;-68
2022/12/14 05:14:45;;;;;;;2.50;1.80;;;18.90;51.70;;;;;;6245640;28;20013;-69
2022/12/14 05:17:47;;;;;;;3.45;1.83;;;18.90;51.70;;;;;;6245616;28;20056;-69
2022/12/14 05:20:49;;;;;;;2.42;1.80;;;18.90;51.80;;;;;;6245562;28;20077;-68
2022/12/14 05:23:49;;;;;;;2.78;1.83;;;18.90;51.70;;;;;;6245388;28;20022;-68
2022/12/14 05:26:50;;;;;;;2.85;1.85;;;18.90;51.70;;;;;;6245167;28;20382;-68
2022/12/14 05:29:51;;;;;;;2.38;1.67;;;18.90;51.70;;;;;;6243531;28;20470;-69
2022/12/14 05:32:53;;;;;;;2.28;1.85;;;18.90;51.80;;;;;;6243668;28;20079;-68
2022/12/14 05:35:54;;;;;;;2.67;1.88;;;18.90;51.80;;;;;;6244064;28;20056;-69
2022/12/14 05:38:54;;;;;;;2.80;2.10;;;18.90;51.70;;;;;;6244798;28;20441;-69
2022/12/14 05:41:55;;;;;;;3.00;1.90;;;18.90;51.70;;;;;;6244908;28;20028;-69
2022/12/14 05:44:56;;;;;;;2.38;1.80;;;18.90;51.70;;;;;;6244537;28;20028;-68
2022/12/14 05:47:56;;;;;;;3.05;1.85;;;18.90;51.70;;;;;;6244675;28;20030;-69
2022/12/14 05:51:15;;;;;;;4.03;1.77;;;18.90;51.80;;;;;;6244740;28;20439;-69
2022/12/14 05:54:16;;;;;;;2.50;1.90;;;18.90;51.90;;;;;;6244323;28;20483;-69
2022/12/14 05:57:16;;;;;;;2.67;2.03;;;18.90;51.70;;;;;;6244648;28;20037;-68
2022/12/14 06:00:17;;;;;;;2.72;2.20;;;18.90;51.80;;;;;;6243106;28;20484;-69
2022/12/14 06:03:19;;;;;;;3.08;1.83;;;18.90;51.80;;;;;;6244145;28;20098;-69
2022/12/14 06:06:20;;;;;;;2.63;1.85;;;18.90;51.80;;;;;;6244182;28;20018;-69
2022/12/14 06:09:21;;;;;;;2.13;1.70;;;18.90;51.80;;;;;;6242598;28;20043;-69
2022/12/14 06:12:22;;;;;;;3.42;1.88;;;18.90;51.60;;;;;;6243542;28;20080;-69
2022/12/14 06:15:22;;;;;;;2.33;1.80;;;18.90;51.80;;;;;;6244205;28;20048;-69
2022/12/14 06:18:23;;;;;;;2.63;1.90;;;18.90;51.80;;;;;;6244160;28;20093;-69
2022/12/14 06:21:32;;;;;;;2.55;1.80;;;18.90;51.80;;;;;;6243907;28;20026;-69
2022/12/14 06:24:33;;;;;;;2.58;1.88;;;18.90;51.70;;;;;;6243821;28;20026;-69
2022/12/14 06:27:34;;;;;;;3.00;1.77;;;18.90;51.70;;;;;;6242793;28;20083;-69
2022/12/14 06:30:35;;;;;;;4.00;2.58;;;18.90;51.70;;;;;;6243899;28;20681;-68
2022/12/14 06:33:35;;;;;;;2.15;1.77;;;18.90;51.70;;;;;;6243558;28;20024;-69
2022/12/14 06:36:39;;;;;;;2.25;1.83;;;18.90;51.70;;;;;;6243939;28;20079;-69
2022/12/14 06:39:40;;;;;;;2.53;2.05;;;18.90;51.70;;;;;;6243338;28;20026;-70
2022/12/14 06:42:41;;;;;;;3.22;2.30;;;18.90;51.80;;;;;;6243296;28;20040;-69
2022/12/14 06:45:41;;;;;;;2.92;1.92;;;18.90;51.70;;;;;;6243369;28;20709;-69
2022/12/14 06:48:42;;;;;;;2.22;1.60;;;18.90;51.60;;;;;;6242434;28;20403;-69
2022/12/14 06:51:43;;;;;;;2.88;2.10;;;18.90;51.80;;;;;;6243521;28;20029;-69
2022/12/14 06:54:44;;;;;;;2.42;1.80;;;18.90;51.70;;;;;;6243327;28;20045;-69
2022/12/14 06:57:44;;;;;;;2.53;1.73;;;18.90;51.70;;;;;;6241846;28;20084;-68
2022/12/14 07:00:45;;;;;;;3.22;1.95;;;18.90;51.70;;;;;;6245449;28;20104;-69
2022/12/14 07:03:47;;;;;;;2.15;1.80;;;18.90;51.80;;;;;;6245224;28;20033;-69
2022/12/14 07:06:48;;;;;;;3.45;2.20;;;18.90;51.80;;;;;;6245383;28;20100;-70
2022/12/14 07:09:49;;;;;;;3.53;2.30;;;18.90;51.80;;;;;;6244596;28;20022;-69
2022/12/14 07:12:50;;;;;;;2.78;2.03;;;18.90;51.80;;;;;;6245757;28;20104;-69
2022/12/14 07:15:53;;;;;;;3.33;2.28;;;18.90;51.80;;;;;;6244575;28;20025;-68
2022/12/14 07:18:54;;;;;;;2.20;1.80;;;18.90;51.90;;;;;;6245172;28;20075;-68
2022/12/14 07:21:55;;;;;;;2.38;1.83;;;18.90;51.70;;;;;;6245407;28;20554;-68
2022/12/14 07:24:55;;;;;;;2.30;1.90;;;18.90;51.80;;;;;;6243854;28;20029;-68
2022/12/14 07:27:56;;;;;;;1.98;1.60;;;18.90;51.80;;;;;;6244066;28;20509;-68
2022/12/14 07:30:58;;;;;;;2.40;1.88;;;18.90;51.90;;;;;;6244914;28;20026;-68
2022/12/14 07:33:59;;;;;;;2.42;2.03;;;18.90;51.80;;;;;;6245147;28;20056;-68
2022/12/14 07:37:00;;;;;;;3.70;2.17;;;18.90;51.70;;;;;;6245396;28;20057;-68
2022/12/14 07:40:02;;;;;;;2.72;2.10;;;18.90;51.70;;;;;;6245558;28;20036;-68
2022/12/14 07:43:03;;;;;;;3.63;2.20;;;18.90;51.90;;;;;;6244892;28;20079;-68
2022/12/14 07:46:06;;;;;;;2.22;1.90;;;18.90;51.80;;;;;;6260437;28;20030;-69
2022/12/14 07:49:08;;;;;;;3.08;2.00;;;18.90;51.80;;;;;;6245100;28;20025;-68
2022/12/14 07:52:08;;;;;;;3.17;2.08;;;18.90;51.80;;;;;;6246919;28;20139;-68
2022/12/14 07:55:09;;;;;;;2.67;1.92;;;18.90;51.90;;;;;;6249141;28;20518;-68
2022/12/14 07:58:10;;;;;;;2.58;1.95;;;18.90;51.90;;;;;;6249697;28;20037;-68
2022/12/14 08:01:17;;;;;;;3.10;2.20;;;18.90;51.80;;;;;;6249478;28;20087;-69
2022/12/14 08:04:18;;;;;;;2.65;2.00;;;18.90;51.80;;;;;;6248739;28;20033;-68
2022/12/14 08:07:19;;;;;;;2.53;1.92;;;18.90;51.80;;;;;;6248137;28;20033;-69
2022/12/14 08:10:20;;;;;;;3.10;2.15;;;18.90;51.70;;;;;;6249178;28;20095;-69
2022/12/14 08:13:20;;;;;;;2.63;1.83;;;18.90;51.90;;;;;;6247770;28;20109;-69
2022/12/14 08:16:21;;;;;;;3.13;1.92;;;18.90;51.80;;;;;;6248125;28;20430;-68
2022/12/14 08:19:22;;;;;;;3.17;2.10;;;18.90;51.90;;;;;;6249176;28;20387;-69
2022/12/14 08:22:23;;;;;;;3.50;2.05;;;18.90;51.80;;;;;;6248931;28;20037;-69
2022/12/14 08:25:24;;;;;;;2.92;2.03;;;18.90;51.90;;;;;;6248888;28;20033;-69
2022/12/14 08:28:26;;;;;;;2.90;2.03;;;18.90;51.90;;;;;;6248263;28;20040;-69
2022/12/14 08:31:27;;;;;;;2.50;1.90;;;18.90;51.70;;;;;;6248822;28;20030;-69
2022/12/14 08:34:27;;;;;;;3.08;2.08;;;18.90;51.80;;;;;;6247028;28;20021;-69
2022/12/14 08:37:28;;;;;;;2.33;1.90;;;18.90;51.80;;;;;;6248856;28;20076;-69
2022/12/14 08:40:29;;;;;;;3.95;2.42;;;18.90;51.70;;;;;;6248366;28;20114;-69
2022/12/14 08:43:30;;;;;;;3.15;1.90;;;19.00;51.80;;;;;;6248548;28;20021;-69
2022/12/14 08:46:33;;;;;;;3.05;2.13;;;18.90;51.70;;;;;;6247954;28;20029;-68
2022/12/14 08:49:34;;;;;;;2.97;2.13;;;18.90;51.70;;;;;;6248822;28;20144;-69
2022/12/14 08:52:35;;;;;;;4.72;2.30;;;18.90;51.80;;;;;;6248343;28;20593;-69
2022/12/14 08:55:37;;;;;;;3.40;2.35;;;18.90;51.80;;;;;;6248503;28;20037;-69
2022/12/14 08:58:38;;;;;;;2.60;2.00;;;18.90;51.80;;;;;;6248266;28;20025;-68
2022/12/14 09:01:39;;;;;;;2.55;2.08;;;18.90;51.70;;;;;;6248174;28;20053;-68
2022/12/14 09:04:40;;;;;;;2.88;1.88;;;18.90;51.80;;;;;;6245795;28;20032;-69
2022/12/14 09:07:40;;;;;;;2.78;2.00;;;18.90;51.70;;;;;;6247618;28;20036;-69
2022/12/14 09:10:48;;;;;;;3.42;2.05;;;18.90;51.80;;;;;;6247764;28;20375;-68
2022/12/14 09:13:53;;;;;;;2.92;2.17;;;18.90;51.70;;;;;;6246606;28;20018;-68
2022/12/14 09:16:53;;;;;;;2.55;1.75;;;18.90;51.80;;;;;;6248145;28;20021;-69
2022/12/14 09:19:54;;;;;;;2.25;1.88;;;18.90;51.90;;;;;;6246744;28;20029;-69
2022/12/14 09:22:55;;;;;;;2.40;1.77;;;18.90;51.80;;;;;;6248055;28;20039;-69
2022/12/14 09:26:03;;;;;;;2.92;2.00;;;18.90;51.80;;;;;;6247403;28;20068;-68
2022/12/14 09:29:04;;;;;;;2.28;1.92;;;18.90;51.80;;;;;;6247401;28;20490;-69
2022/12/14 09:32:04;;;;;;;2.50;1.95;;;18.90;51.80;;;;;;6247492;28;20025;-69
2022/12/14 09:35:05;;;;;;;2.42;1.95;;;18.90;51.70;;;;;;6247114;28;20028;-69
2022/12/14 09:38:07;;;;;;;3.08;1.95;;;18.90;51.80;;;;;;6247450;28;20639;-68
2022/12/14 09:41:18;;;;;;;2.42;1.88;;;18.90;51.80;;;;;;6245742;28;20029;-69
2022/12/14 09:44:49;;;;;;;2.40;2.00;;;18.90;51.90;;;;;;6247828;28;20029;-69
2022/12/14 09:48:02;;;;;;;3.63;2.13;;;18.90;51.90;;;;;;6240047;28;20087;-68
2022/12/14 09:51:03;;;;;;;3.42;2.03;;;18.90;51.70;;;;;;6247160;28;20026;-68
2022/12/14 09:54:13;;;;;;;2.67;2.05;;;18.90;51.80;;;;;;6245942;28;20029;-68
2022/12/14 09:57:24;;;;;;;2.53;1.70;;;18.90;51.90;;;;;;6246706;28;20041;-69
2022/12/14 10:00:33;;;;;;;2.22;1.77;;;18.90;51.90;;;;;;6245956;28;20021;-69
2022/12/14 10:03:51;;;;;;;3.30;1.92;;;18.90;51.80;;;;;;6246777;28;20112;-68
2022/12/14 10:07:09;;;;;;;3.35;2.25;;;18.90;51.80;;;;;;6246463;28;20028;-69
2022/12/14 10:10:22;;;;;;;2.78;1.80;;;18.90;51.90;;;;;;6245236;28;20029;-68
2022/12/14 10:13:35;;;;;;;2.83;2.10;;;18.90;51.80;;;;;;6246661;28;20021;-68
2022/12/14 10:16:44;;;;;;;3.00;2.13;;;18.90;52.50;;;;;;6245043;28;20029;-69
2022/12/14 10:19:54;;;;;;;3.47;2.20;;;18.90;51.90;;;;;;6245371;28;20052;-68
2022/12/14 10:22:55;;;;;;;3.53;2.17;;;18.90;51.80;;;;;;6244760;28;20037;-68
2022/12/14 10:26:12;;;;;;;2.22;1.75;;;18.90;51.90;;;;;;6244856;28;20030;-68
2022/12/14 10:29:25;;;;;;;2.22;1.83;;;18.90;51.90;;;;;;6246666;28;20020;-68
2022/12/14 10:32:35;;;;;;;3.33;2.00;;;18.90;51.90;;;;;;6245382;28;20082;-69
2022/12/14 10:35:53;;;;;;;2.65;2.10;;;18.90;51.90;;;;;;6245086;28;20147;-68
2022/12/14 10:39:00;;;;;;;2.85;2.10;;;19.00;52.00;;;;;;6245317;28;20383;-69
2022/12/14 10:42:22;;;;;;;5.93;2.40;;;18.90;51.90;;;;;;6245483;28;20095;-68
2022/12/14 10:45:40;;;;;;;3.08;2.00;;;18.90;51.90;;;;;;6246274;28;20472;-69
2022/12/14 10:49:01;;;;;;;2.80;2.03;;;18.90;52.00;;;;;;6245794;28;20033;-69
2022/12/14 10:52:15;;;;;;;2.65;1.98;;;18.90;51.90;;;;;;6245785;28;20474;-68
2022/12/14 10:55:28;;;;;;;2.65;1.88;;;18.90;51.90;;;;;;6244237;28;20049;-68
2022/12/14 10:58:28;;;;;;;2.63;2.08;;;18.90;51.90;;;;;;6245822;28;20036;-68
2022/12/14 11:01:30;;;;;;;2.70;2.00;;;18.90;51.90;;;;;;6245885;28;20108;-69
2022/12/14 11:04:57;;;;;;;3.42;2.33;;;18.90;51.90;;;;;;6245133;28;20386;-68
2022/12/14 11:07:58;;;;;;;2.80;2.10;;;18.90;51.90;;;;;;6242831;28;20049;-69
2022/12/14 11:11:14;;;;;;;3.03;1.80;;;19.00;51.90;;;;;;6245867;28;20022;-68
2022/12/14 11:14:18;;;;;;;2.90;2.17;;;18.90;51.90;;;;;;6245120;28;20479;-69
2022/12/14 11:17:36;;;;;;;2.95;2.10;;;18.90;51.90;;;;;;6245154;28;20032;-69
2022/12/14 11:20:47;;;;;;;3.08;2.30;;;18.90;51.90;;;;;;6245524;28;20029;-68
2022/12/14 11:23:53;;;;;;;4.75;2.20;;;18.90;51.90;;;;;;6245030;28;20029;-69
2022/12/14 11:27:01;;;;;;;2.63;2.00;;;18.90;51.90;;;;;;6245776;28;20475;-68
2022/12/14 11:30:04;;;;;;;3.47;2.20;;;18.90;51.90;;;;;;6250605;28;20026;-68
2022/12/14 11:33:05;;;;;;;2.65;2.13;;;18.90;51.90;;;;;;6250365;28;20032;-68
2022/12/14 11:36:21;;;;;;;3.03;2.05;;;18.90;51.90;;;;;;6248867;28;20394;-69
2022/12/14 11:39:23;;;;;;;2.72;2.10;;;18.90;51.90;;;;;;6249972;28;20430;-68
2022/12/14 11:42:25;;;;;;;3.67;2.40;;;18.90;51.90;;;;;;6250108;28;20101;-68
2022/12/14 11:45:25;;;;;;;3.10;2.42;;;18.90;51.90;;;;;;6250012;28;20386;-68
2022/12/14 11:48:27;;;;;;;3.58;2.47;;;18.90;52.00;;;;;;6249952;28;20036;-68
2022/12/14 11:51:28;;;;;;;3.67;2.70;;;18.90;51.90;;;;;;6248886;28;20026;-69
2022/12/14 11:54:30;;;;;;;3.83;2.60;;;18.90;51.90;;;;;;6249719;28;20048;-69
2022/12/14 11:57:58;;;;;;;3.55;2.50;;;18.90;51.90;;;;;;6249898;28;20040;-68
2022/12/14 12:01:12;;;;;;;3.17;2.40;;;18.90;51.90;;;;;;6247929;28;20205;-68
2022/12/14 12:04:16;;;;;;;4.32;3.10;;;18.90;51.90;;;;;;6248489;28;20029;-69
2022/12/14 12:07:48;;;;;;;2.33;1.92;;;18.90;51.90;;;;;;6249676;28;20025;-69
2022/12/14 12:10:52;;;;;;;4.13;2.88;;;18.90;51.90;;;;;;6250734;28;20095;-68
2022/12/14 12:14:03;;;;;;;3.97;2.70;;;18.90;51.90;;;;;;6247829;28;20071;-69
2022/12/14 12:17:18;;;;;;;3.85;3.05;;;18.90;51.90;;;;;;6249618;28;20025;-69
2022/12/14 12:20:35;;;;;;;3.97;2.60;;;18.90;51.90;;;;;;6248900;28;20103;-68
2022/12/14 12:23:54;;;;;;;3.38;2.63;;;18.90;51.90;;;;;;6247384;28;20033;-69
2022/12/14 12:27:02;;;;;;;4.25;2.90;;;18.90;51.90;;;;;;6249506;28;20026;-69
2022/12/14 12:30:28;;;;;;;4.15;3.08;;;18.90;52.00;;;;;;6247263;28;20071;-68
2022/12/14 12:33:45;;;;;;;4.22;3.13;;;18.90;51.90;;;;;;6259391;28;20049;-69
2022/12/14 12:36:47;;;;;;;4.15;2.72;;;18.90;52.00;;;;;;6247750;28;20079;-69
2022/12/14 12:39:55;;;;;;;4.05;3.05;;;18.90;51.90;;;;;;6247829;28;20037;-68
2022/12/14 12:43:25;;;;;;;3.70;2.90;;;18.90;51.90;;;;;;6246951;28;20045;-69
2022/12/14 12:46:34;;;;;;;3.35;2.75;;;18.90;52.00;;;;;;6247036;28;20759;-68
2022/12/14 12:49:35;;;;;;;4.82;3.30;;;18.90;52.10;;;;;;6248862;28;20017;-69
2022/12/14 12:52:49;;;;;;;4.05;2.65;;;18.90;52.00;;;;;;6248262;28;20028;-68
2022/12/14 12:55:54;;;;;;;5.03;3.15;;;18.90;51.90;;;;;;6248377;28;20470;-68
2022/12/14 12:58:55;;;;;;;;;;;18.90;52.00;;;;;;6249127;28;20033;-68
2022/12/14 13:02:01;;;;;;;5.90;3.20;;;18.90;52.00;;;;;;6249017;28;19912;-69
2022/12/14 13:05:10;;;;;;;4.72;3.47;;;18.90;52.00;;;;;;6248027;28;20052;-69
2022/12/14 13:08:24;;;;;;;5.18;3.03;;;18.90;51.90;;;;;;6246481;28;20423;-69
2022/12/14 13:11:31;;;;;;;4.40;3.08;;;18.90;51.90;;;;;;6247572;28;20052;-68
2022/12/14 13:14:43;;;;;;;4.43;3.00;;;18.90;52.00;;;;;;6246843;28;20099;-68
2022/12/14 13:17:54;;;;;;;4.50;2.88;;;18.90;52.00;;;;;;6247700;28;20403;-69
2022/12/14 13:20:55;;;;;;;6.30;3.78;;;18.90;52.00;;;;;;6249002;28;20025;-69
2022/12/14 13:23:57;;;;;;;4.05;3.40;;;18.90;52.00;;;;;;6247745;28;20060;-69
2022/12/14 13:27:07;;;;;;;4.60;3.05;;;18.90;51.90;;;;;;6248208;28;20036;-69
2022/12/14 13:30:20;;;;;;;4.35;3.03;;;18.90;52.00;;;;;;6247602;28;20091;-69
2022/12/14 13:33:58;;;;;;;4.72;3.20;;;18.90;51.90;;;;;;6247405;28;20022;-69
2022/12/14 13:37:36;;;;;;;5.65;3.63;;;18.90;51.90;;;;;;6246237;28;20083;-69
2022/12/14 13:41:03;;;;;;;4.65;3.58;;;18.90;52.00;;;;;;6245940;28;20142;-68
2022/12/14 13:44:17;;;;;;;4.72;3.20;;;18.90;52.00;;;;;;6247859;28;20501;-69
2022/12/14 13:47:28;;;;;;;4.45;3.35;;;18.90;52.00;;;;;;6247442;28;20471;-68
2022/12/14 13:50:38;;;;;;;4.72;3.50;;;18.90;52.00;;;;;;6262235;28;20486;-69
2022/12/14 13:53:49;;;;;;;4.47;3.35;;;18.90;51.90;;;;;;6247400;28;20025;-69
2022/12/14 13:56:58;;;;;;;5.90;3.83;;;18.90;51.90;;;;;;6247403;28;20379;-69
2022/12/14 14:00:00;;;;;;;5.07;3.72;;;18.90;52.00;;;;;;6245359;28;20029;-68
2022/12/14 14:03:01;;;;;;;5.72;3.70;;;18.90;51.90;;;;;;6246992;28;20179;-69
2022/12/14 14:06:10;;;;;;;5.03;3.63;;;18.90;51.90;;;;;;6245277;28;20034;-69
2022/12/14 14:09:32;;;;;;;5.88;3.38;;;18.90;51.90;;;;;;6246611;28;20049;-69
2022/12/14 14:12:37;;;;;;;4.28;3.35;;;18.90;51.90;;;;;;6246717;28;20033;-68
2022/12/14 14:15:51;;;;;;;3.83;2.75;;;18.90;51.80;;;;;;6245016;28;20034;-68
2022/12/14 14:19:24;;;;;;;5.20;3.30;;;18.90;51.80;;;;;;6246207;28;20449;-69
2022/12/14 14:22:27;;;;;;;5.50;3.72;;;18.90;51.90;;;;;;6216696;28;20038;-68
2022/12/14 14:25:38;;;;;;;4.53;3.25;;;18.90;51.90;;;;;;6221982;28;20022;-69
2022/12/14 14:28:39;;;;;;;3.72;2.88;;;18.90;51.90;;;;;;6221331;28;20025;-68
2022/12/14 14:31:50;;;;;;;4.28;3.40;;;18.90;51.90;;;;;;6221780;28;20030;-69
2022/12/14 14:34:51;;;;;;;5.85;3.72;;;18.90;51.90;;;;;;6225765;28;20092;-69
2022/12/14 14:38:04;;;;;;;4.78;3.38;;;18.90;51.90;;;;;;6245921;28;20021;-69
2022/12/14 14:41:13;;;;;;;4.65;3.50;;;18.90;51.90;;;;;;6245602;28;20029;-69
2022/12/14 14:44:23;;;;;;;4.65;3.45;;;18.90;51.90;;;;;;6245889;28;20094;-69
2022/12/14 14:47:25;;;;;;;5.00;3.55;;;18.90;52.00;;;;;;6236556;28;20061;-69
2022/12/14 14:50:30;;;;;;;5.38;3.72;;;18.90;52.00;;;;;;6229188;28;20032;-68
2022/12/14 14:53:36;;;;;;;4.60;3.30;;;18.90;52.00;;;;;;6245492;28;20032;-69
2022/12/14 14:56:38;;;;;;;5.45;3.83;;;18.90;51.90;;;;;;6244553;28;20053;-69
2022/12/14 14:59:44;;;;;;;5.80;4.07;;;18.90;51.90;;;;;;6245488;28;20029;-69
2022/12/14 15:02:45;;;;;;;4.53;3.35;;;18.90;51.90;;;;;;6245048;28;20482;-68
2022/12/14 15:05:48;;;;;;;4.78;3.67;;;18.90;51.90;;;;;;6244050;28;20041;-69
2022/12/14 15:08:59;;;;;;;5.18;3.50;;;18.90;51.90;;;;;;6245815;28;20025;-69
2022/12/14 15:12:22;;;;;;;4.38;3.45;;;18.90;51.90;;;;;;6245302;28;20018;-68
2022/12/14 15:15:43;;;;;;;6.55;3.78;;;18.90;51.80;;;;;;6244863;28;20117;-68
2022/12/14 15:18:44;;;;;;;5.18;3.85;;;18.90;51.90;;;;;;6243919;28;20034;-69
2022/12/14 15:21:46;;;;;;;6.25;4.05;;;18.90;51.90;;;;;;6245139;28;20045;-68
2022/12/14 15:24:55;;;;;;;6.07;4.05;;;18.90;51.90;;;;;;6243647;28;20033;-69
2022/12/14 15:28:06;;;;;;;5.05;3.60;;;18.90;51.80;;;;;;6244186;28;20687;-69
2022/12/14 15:31:07;;;;;;;5.70;3.50;;;18.90;51.90;;;;;;6244494;28;20061;-69
2022/12/14 15:34:16;;;;;;;6.30;3.92;;;18.90;51.90;;;;;;6245222;28;20489;-69
2022/12/14 15:38:09;;;;;;;5.82;4.00;;;18.90;51.80;;;;;;6245054;28;20106;-69
2022/12/14 15:41:14;;;;;;;4.57;3.55;;;18.90;51.90;;;;;;6217057;28;20499;-68
2022/12/14 15:44:20;;;;;;;5.57;4.00;;;18.90;51.80;;;;;;6245015;28;20095;-69
2022/12/14 15:47:28;;;;;;;5.40;3.75;;;18.90;51.90;;;;;;6244996;28;20021;-69
2022/12/14 15:50:32;;;;;;;6.45;3.90;;;18.90;51.90;;;;;;6244878;28;20022;-68
2022/12/14 15:53:39;;;;;;;5.35;3.75;;;18.90;51.80;;;;;;6244934;28;20147;-70
2022/12/14 15:56:43;;;;;;;5.30;4.00;;;18.90;51.90;;;;;;6243394;28;20045;-69
2022/12/14 15:59:46;;;;;;;6.00;3.70;;;18.90;51.80;;;;;;6244903;28;20531;-69
2022/12/14 16:02:47;;;;;;;4.90;3.50;;;18.90;51.80;;;;;;6244489;28;20032;-68
2022/12/14 16:05:48;;;;;;;6.22;3.88;;;18.90;51.80;;;;;;6244737;28;20029;-69
2022/12/14 16:09:04;;;;;;;5.68;3.78;;;18.90;51.90;;;;;;6260133;28;20033;-68
2022/12/14 16:12:25;;;;;;;;;;;18.90;51.80;;;;;;6245578;28;20021;-68
2022/12/14 16:15:27;;;;;;;6.60;4.53;;;18.90;51.80;;;;;;6245224;28;20081;-69
2022/12/14 16:18:28;;;;;;;5.35;3.88;;;18.90;51.80;;;;;;6248119;28;20029;-69
2022/12/14 16:21:33;;;;;;;5.10;3.95;;;18.90;51.80;;;;;;6247465;28;20099;-69
2022/12/14 16:24:34;;;;;;;5.53;3.83;;;18.90;51.80;;;;;;6248281;28;20025;-69
2022/12/14 16:27:39;;;;;;;5.32;3.88;;;18.90;51.80;;;;;;6249174;28;20117;-69
2022/12/14 16:31:02;;;;;;;5.75;4.05;;;18.90;51.80;;;;;;6247713;28;20474;-68